Engel's, Russia
Current Conditions -  °F | °C
As of 1:00 AM on Tuesday 23 Dec 2014 (Local Time) from UWSS Reporting Station
Few Clouds Few Clouds  
Wind Chill: 19°   Ceiling: Unl
Heat Index: 28°   Visibility: 6mi
Dew Point: 23°   Wind: 11mph
Humidity: 80%   Direction: 270°W
Pressure: 29.74"   Gusts: NA
Location:  51.3°N, 46.12°E
Report Text: UWSS 222200Z 27005MPS 9999 FEW016 M02/M05 Q1007 30320150 NOSIGRMK QFE741
Loading
Personal Weather Stations






























Interactive Weather Map New forecast layout! Learn more

10-Day Weather Forecast

Advertisements
Track Severe Weather on mobile